Ebeye, MH

8:23 AM MHT on August 01, 2014 (GMT +1200)
Wake Island Army Air Field (PWAK) Elev 13 ft | 19.28 °N, 166.64 °E | Change Station

Current weather conditions updated 25 minutes ago

Partly Cloudy
Partly Cloudy
83 °F
Feels Like 90 °F
N
6
Wind Variable Wind from Variable

Today is forecast to be Cooler than yesterday. Scattered thunderstorms possible tonight.

Today
High -- | Low -- °F
--% Chance of Precip.
Yesterday
High -- | Low -- °F
Precip. -- in
6:29 AM 6:54 PM
Waxing Crescent, 20% visible
Pressure 29.92 in
Visibility 6.2 miles
Clouds Few 2400 ft
Heat Index 90 °F
Dew Point 75 °F
Humidity 76%
Rainfall 0.00 in
Snow Depth Not available.
UV 1 out of 12
Pollen Not available.
Air Quality Not available.
Flu Activity Not available.
METAR PWAK 311958Z AUTO VRB05KT 9999 FEW024 28/24 A2990 RMK AO2 RAB1945E1954 SLP131 P0000 T02840239 $

More Conditions Fewer Conditions

Pressure 29.92 in
Visibility 6.2 miles
Clouds Few 2400 ft
Heat Index 90 °F
Dew Point 75 °F
Humidity 76%
Rainfall 0.00 in
Snow Depth Not available.
UV 1 out of 12
Pollen Not available.
Air Quality Not available.
Flu Activity Not available.
METAR PWAK 311958Z AUTO VRB05KT 9999 FEW024 28/24 A2990 RMK AO2 RAB1945E1954 SLP131 P0000 T02840239 $

More Conditions Fewer Conditions

10-Day Weather Forecast

Almanac

Astronomy

Aug. 01, 2014 Rise Set
Actual Time 6:29 AM MHT 6:54 PM MHT
Civil Twilight 6:07 AM MHT 7:16 PM MHT
Nautical Twilight 5:41 AM MHT 7:42 PM MHT
Astronomical Twilight 5:15 AM MHT 8:08 PM MHT
Moon 10:08 AM MHT (8/1) 10:25 PM MHT (8/1)
Length of Visible Light 13h 09m
Length of Day
12h 25m
Tomorrow will be 0m 18s shorter.
Waxing Crescent, 20% of the Moon is Illuminated
Jul 31
Waxing Crescent
Aug 3
First Quarter
Aug 10
Full
Aug 17
Last Quarter
Aug 25
New

Community

WunderPhotos

Upload Photos

1,739,446 photos uploaded!

Nearby

Snow Depth

Station Depth Elevation
No new snow has been reported.

Earthquake Activity

City Distance Mag. Time & Date
No recent earthquake activity has been reported nearby.
Minimum magnitude displayed is 2.5.

Coastal Water Temperatures

Place Temperature
No Stations Reporting

Nearby Weather Stations

There are no personal weather stations in this area.